Time;durP1;ratioP1;P1;durP2;ratioP2;P2;SDS_P1;SDS_P2;PMS_P1;PMS_P2;Temp;Humidity;BMP_temperature;BMP_pressure;BME280_temperature;BME280_humidity;BME280_pressure;Samples;Min_cycle;Max_cycle;Signal;HPM_P1;HPM_P2
2023/06/28 00:03:29;;;;;;;5.55;2.85;;;;;;;;;;10526265;28;20076;-81
2023/06/28 00:08:42;;;;;;;4.88;2.50;;;;;;;;;;10511514;28;20073;-81
2023/06/28 00:13:56;;;;;;;5.22;2.47;;;;;;;;;;10536189;28;20047;-81
2023/06/28 00:19:03;;;;;;;6.25;2.90;;;;;;;;;;10528683;28;20048;-80
2023/06/28 00:24:24;;;;;;;5.68;2.78;;;;;;;;;;10526686;28;20485;-79
2023/06/28 00:29:32;;;;;;;5.43;2.72;;;;;;;;;;10504870;28;20093;-81
2023/06/28 00:34:42;;;;;;;4.55;2.70;;;;;;;;;;10530168;28;20159;-79
2023/06/28 00:39:55;;;;;;;8.63;4.15;;;;;;;;;;10506645;28;20086;-81
2023/06/28 00:45:01;;;;;;;5.72;3.00;;;;;;;;;;10528197;28;20127;-80
2023/06/28 00:50:15;;;;;;;6.95;2.97;;;;;;;;;;10525697;28;20055;-81
2023/06/28 00:55:21;;;;;;;6.47;3.13;;;;;;;;;;10529594;28;20043;-82
2023/06/28 01:06:00;;;;;;;7.00;3.20;;;;;;;;;;10525868;28;20619;-80
2023/06/28 01:11:26;;;;;;;5.40;2.92;;;;;;;;;;10527810;28;20134;-79
2023/06/28 01:16:30;;;;;;;4.47;2.70;;;;;;;;;;10511362;28;20119;-82
2023/06/28 01:21:39;;;;;;;6.60;2.92;;;;;;;;;;10533208;28;20501;-82
2023/06/28 01:27:00;;;;;;;6.90;2.65;;;;;;;;;;10515740;28;20106;-82
2023/06/28 01:32:09;;;;;;;7.07;3.25;;;;;;;;;;10513059;28;20048;-82
2023/06/28 01:37:28;;;;;;;5.63;3.20;;;;;;;;;;10533275;28;20036;-83
2023/06/28 01:42:34;;;;;;;11.85;4.40;;;;;;;;;;10526371;28;20135;-83
2023/06/28 01:47:41;;;;;;;6.25;3.58;;;;;;;;;;10524766;28;20040;-83
2023/06/28 01:52:46;;;;;;;8.90;3.97;;;;;;;;;;10528818;28;20165;-82
2023/06/28 01:57:55;;;;;;;7.00;3.42;;;;;;;;;;10531194;28;20040;-76
2023/06/28 02:03:05;;;;;;;6.85;3.85;;;;;;;;;;10493041;28;20047;-75
2023/06/28 02:08:20;;;;;;;8.15;3.72;;;;;;;;;;10505928;28;20043;-76
2023/06/28 02:13:30;;;;;;;6.88;3.65;;;;;;;;;;10528513;28;20063;-76
2023/06/28 02:18:36;;;;;;;6.18;4.00;;;;;;;;;;10524409;28;20032;-75
2023/06/28 02:23:40;;;;;;;7.05;3.28;;;;;;;;;;10524012;28;20067;-75
2023/06/28 02:34:14;;;;;;;10.32;3.33;;;;;;;;;;10524030;28;20119;-76
2023/06/28 02:39:24;;;;;;;6.15;2.88;;;;;;;;;;10526046;28;20048;-76
2023/06/28 02:44:34;;;;;;;5.88;2.70;;;;;;;;;;10510451;28;20080;-76
2023/06/28 02:49:44;;;;;;;6.10;2.80;;;;;;;;;;10521983;28;20477;-77
2023/06/28 02:54:55;;;;;;;7.35;2.90;;;;;;;;;;10507366;28;20079;-77
2023/06/28 03:00:02;;;;;;;5.30;2.55;;;;;;;;;;10527880;28;20043;-76
2023/06/28 03:05:13;;;;;;;5.97;2.85;;;;;;;;;;10521985;28;20048;-76
2023/06/28 03:10:19;;;;;;;4.80;2.40;;;;;;;;;;10487679;28;20083;-76
2023/06/28 03:16:06;;;;;;;6.38;2.42;;;;;;;;;;10509290;28;20044;-77
2023/06/28 03:21:13;;;;;;;7.00;2.90;;;;;;;;;;10520491;28;20050;-77
2023/06/28 03:26:21;;;;;;;3.30;1.90;;;;;;;;;;10521088;28;20036;-76
2023/06/28 03:31:31;;;;;;;6.80;3.50;;;;;;;;;;10482645;28;20044;-74
2023/06/28 03:36:47;;;;;;;3.30;1.95;;;;;;;;;;10490005;28;20040;-76
2023/06/28 03:42:16;;;;;;;6.57;3.50;;;;;;;;;;10510600;28;20044;-76
2023/06/28 03:47:20;;;;;;;6.45;3.80;;;;;;;;;;10535729;28;20090;-75
2023/06/28 03:52:27;;;;;;;7.07;3.17;;;;;;;;;;10520417;28;20075;-76
2023/06/28 03:57:42;;;;;;;4.65;3.15;;;;;;;;;;10521215;28;20140;-76
2023/06/28 04:03:05;;;;;;;5.30;2.38;;;;;;;;;;10518855;28;20039;-77
2023/06/28 04:08:18;;;;;;;2.13;1.52;;;;;;;;;;10516569;28;20373;-77
2023/06/28 04:13:33;;;;;;;6.95;3.88;;;;;;;;;;10530217;28;20046;-77
2023/06/28 04:18:40;;;;;;;5.15;2.92;;;;;;;;;;10509042;28;20041;-77
2023/06/28 04:24:00;;;;;;;9.10;3.07;;;;;;;;;;10537743;28;20036;-78
2023/06/28 04:29:10;;;;;;;5.47;2.72;;;;;;;;;;10529166;28;20060;-77
2023/06/28 04:34:30;;;;;;;6.30;3.20;;;;;;;;;;10527308;28;20056;-76
2023/06/28 04:39:43;;;;;;;6.70;3.83;;;;;;;;;;10514174;28;20421;-77
2023/06/28 04:44:49;;;;;;;8.38;3.95;;;;;;;;;;10533232;28;20071;-76
2023/06/28 04:49:57;;;;;;;5.38;3.17;;;;;;;;;;10531194;28;20042;-78
2023/06/28 04:55:19;;;;;;;7.53;3.50;;;;;;;;;;10509193;28;20050;-78
2023/06/28 05:00:24;;;;;;;6.53;3.22;;;;;;;;;;10526362;28;20044;-78
2023/06/28 05:05:36;;;;;;;7.13;2.25;;;;;;;;;;10507489;28;20463;-77
2023/06/28 05:10:45;;;;;;;7.25;4.07;;;;;;;;;;10517554;28;20591;-76
2023/06/28 05:15:49;;;;;;;4.85;2.78;;;;;;;;;;10526862;28;20313;-77
2023/06/28 05:21:09;;;;;;;5.10;2.97;;;;;;;;;;10512134;28;20048;-78
2023/06/28 05:26:24;;;;;;;4.63;2.33;;;;;;;;;;10528195;28;20051;-79
2023/06/28 05:31:31;;;;;;;7.53;3.65;;;;;;;;;;10529169;28;20044;-76
2023/06/28 05:36:47;;;;;;;5.72;2.13;;;;;;;;;;10529701;28;20044;-78
2023/06/28 05:42:00;;;;;;;2.80;1.63;;;;;;;;;;10525498;28;20105;-78
2023/06/28 05:47:12;;;;;;;5.20;2.55;;;;;;;;;;10521907;28;20044;-80
2023/06/28 05:52:17;;;;;;;5.15;2.55;;;;;;;;;;10525066;28;20040;-79
2023/06/28 05:57:23;;;;;;;;;;;;;;;;;;10508153;28;20471;-78
2023/06/28 06:02:31;;;;;;;2.83;1.60;;;;;;;;;;10527430;28;19992;-78
2023/06/28 06:07:41;;;;;;;3.70;1.50;;;;;;;;;;10512274;28;20051;-77
2023/06/28 06:12:56;;;;;;;8.65;3.10;;;;;;;;;;10536124;28;20052;-78
2023/06/28 06:18:07;;;;;;;5.97;3.20;;;;;;;;;;10524594;28;20089;-75
2023/06/28 06:23:14;;;;;;;5.38;2.88;;;;;;;;;;10543677;28;20075;-80
2023/06/28 06:28:20;;;;;;;1.65;1.55;;;;;;;;;;10525916;28;20453;-79
2023/06/28 06:33:26;;;;;;;4.38;1.85;;;;;;;;;;10508563;28;20427;-79
2023/06/28 06:38:37;;;;;;;4.50;2.50;;;;;;;;;;10518347;28;20044;-78
2023/06/28 06:43:49;;;;;;;4.13;2.30;;;;;;;;;;10505038;28;20489;-78
2023/06/28 06:49:10;;;;;;;5.40;2.40;;;;;;;;;;10519581;28;20028;-78
2023/06/28 06:54:22;;;;;;;3.00;1.90;;;;;;;;;;10507375;28;20040;-79
2023/06/28 06:59:28;;;;;;;5.40;1.45;;;;;;;;;;10525051;28;20075;-80
2023/06/28 07:04:42;;;;;;;5.65;2.70;;;;;;;;;;10524200;28;20052;-78
2023/06/28 07:09:50;;;;;;;1.42;1.00;;;;;;;;;;10522960;28;20209;-78
2023/06/28 07:14:58;;;;;;;5.88;2.72;;;;;;;;;;10516408;28;20414;-79
2023/06/28 07:20:09;;;;;;;4.38;2.22;;;;;;;;;;10520990;28;20543;-80
2023/06/28 07:25:13;;;;;;;2.60;1.05;;;;;;;;;;10500383;28;20048;-80
2023/06/28 07:30:30;;;;;;;4.57;2.50;;;;;;;;;;10534895;28;20070;-79
2023/06/28 07:35:41;;;;;;;5.75;2.28;;;;;;;;;;10503496;28;20119;-79
2023/06/28 07:40:49;;;;;;;4.07;2.40;;;;;;;;;;10524783;28;20114;-80
2023/06/28 07:46:03;;;;;;;3.45;2.00;;;;;;;;;;10509135;28;21124;-79
2023/06/28 07:51:14;;;;;;;2.78;1.58;;;;;;;;;;10512104;28;20056;-79
2023/06/28 07:56:31;;;;;;;4.97;2.20;;;;;;;;;;10546479;27;20143;-80
2023/06/28 08:01:46;;;;;;;6.15;1.95;;;;;;;;;;10527062;28;20063;-79
2023/06/28 08:06:59;;;;;;;;;;;;;;;;;;10509593;28;20135;-77
2023/06/28 08:12:23;;;;;;;2.45;1.33;;;;;;;;;;10538910;27;20015;-78
2023/06/28 08:17:27;;;;;;;3.47;1.73;;;;;;;;;;10524818;28;20723;-77
2023/06/28 08:22:33;;;;;;;3.97;1.98;;;;;;;;;;10525624;28;20181;-78
2023/06/28 08:27:48;;;;;;;4.25;2.05;;;;;;;;;;10525543;28;20055;-77
2023/06/28 08:33:00;;;;;;;5.03;2.25;;;;;;;;;;10504499;28;20048;-78
2023/06/28 08:38:07;;;;;;;10.10;5.10;;;;;;;;;;10524559;28;20048;-80
2023/06/28 08:43:19;;;;;;;2.42;1.70;;;;;;;;;;10526603;28;20058;-79
2023/06/28 08:48:27;;;;;;;4.47;2.10;;;;;;;;;;10529769;28;20036;-80
2023/06/28 08:53:43;;;;;;;3.03;1.48;;;;;;;;;;10529712;28;20035;-80
2023/06/28 08:59:02;;;;;;;4.20;2.03;;;;;;;;;;10532584;28;20561;-79
2023/06/28 09:09:30;;;;;;;4.65;2.50;;;;;;;;;;10528760;28;19924;-80
2023/06/28 09:14:47;;;;;;;5.35;2.38;;;;;;;;;;10525694;28;20055;-80
2023/06/28 09:19:55;;;;;;;4.93;2.20;;;;;;;;;;10530584;28;20060;-80
2023/06/28 09:25:14;;;;;;;4.20;2.10;;;;;;;;;;10573928;28;20047;-81
2023/06/28 09:30:26;;;;;;;4.32;2.22;;;;;;;;;;10552700;28;20036;-81
2023/06/28 09:35:33;;;;;;;;;;;;;;;;;;10534006;28;20040;-80
2023/06/28 09:40:56;;;;;;;5.97;2.50;;;;;;;;;;10529002;28;20261;-80
2023/06/28 09:46:15;;;;;;;4.00;2.15;;;;;;;;;;10530612;28;20059;-81
2023/06/28 09:51:25;;;;;;;7.07;2.40;;;;;;;;;;10525568;28;20043;-80
2023/06/28 09:56:38;;;;;;;4.95;2.47;;;;;;;;;;10524062;28;20150;-80
2023/06/28 10:01:53;;;;;;;4.00;2.20;;;;;;;;;;10529262;28;20350;-80
2023/06/28 10:07:02;;;;;;;4.55;2.50;;;;;;;;;;10516601;28;20048;-80
2023/06/28 10:12:17;;;;;;;2.73;2.03;;;;;;;;;;10519403;28;20066;-79
2023/06/28 10:17:33;;;;;;;4.82;2.30;;;;;;;;;;10522880;28;20337;-87
2023/06/28 10:22:57;;;;;;;4.38;2.20;;;;;;;;;;10526044;28;20052;-87
2023/06/28 10:28:09;;;;;;;3.22;2.15;;;;;;;;;;10509814;28;20148;-87
2023/06/28 10:33:25;;;;;;;3.97;2.00;;;;;;;;;;10522525;28;20035;-87
2023/06/28 10:38:34;;;;;;;5.15;2.25;;;;;;;;;;10529322;28;20066;-88
2023/06/28 10:44:06;;;;;;;4.40;2.22;;;;;;;;;;10522473;28;20044;-88
2023/06/28 10:49:20;;;;;;;3.88;2.05;;;;;;;;;;10501864;28;20172;-86
2023/06/28 10:54:29;;;;;;;4.70;2.50;;;;;;;;;;10508167;28;20068;-87
2023/06/28 10:59:40;;;;;;;3.47;2.00;;;;;;;;;;10504589;28;20049;-83
2023/06/28 11:05:04;;;;;;;3.58;2.58;;;;;;;;;;10518126;28;20526;-83
2023/06/28 11:10:16;;;;;;;6.28;2.30;;;;;;;;;;10505142;28;20157;-83
2023/06/28 11:15:28;;;;;;;3.40;2.20;;;;;;;;;;10519520;28;20489;-83
2023/06/28 11:20:45;;;;;;;7.00;2.60;;;;;;;;;;10522537;28;20048;-84
2023/06/28 11:26:02;;;;;;;3.30;2.20;;;;;;;;;;10528232;28;20067;-83
2023/06/28 11:31:19;;;;;;;4.22;2.28;;;;;;;;;;10516455;28;20048;-81
2023/06/28 11:36:31;;;;;;;4.72;2.20;;;;;;;;;;10503562;28;20052;-82
2023/06/28 11:41:39;;;;;;;4.95;2.30;;;;;;;;;;10503420;28;20036;-81
2023/06/28 11:46:45;;;;;;;4.57;2.53;;;;;;;;;;10515493;28;20060;-82
2023/06/28 11:51:53;;;;;;;3.97;2.33;;;;;;;;;;10519470;28;20067;-82
2023/06/28 11:57:12;;;;;;;5.22;2.38;;;;;;;;;;10508246;28;20517;-82
2023/06/28 12:02:15;;;;;;;4.47;2.20;;;;;;;;;;10526922;28;20040;-82
2023/06/28 12:07:24;;;;;;;5.88;2.35;;;;;;;;;;10525416;28;20050;-82
2023/06/28 12:12:33;;;;;;;4.18;2.47;;;;;;;;;;10530151;28;20335;-82
2023/06/28 12:17:40;;;;;;;4.80;2.55;;;;;;;;;;10509653;28;20443;-82
2023/06/28 12:28:38;;;;;;;3.17;1.90;;;;;;;;;;10528682;28;20056;-83
2023/06/28 12:39:34;;;;;;;4.40;1.85;;;;;;;;;;10472310;27;20453;-81
2023/06/28 12:44:50;;;;;;;6.60;1.95;;;;;;;;;;10444259;28;20030;-79
2023/06/28 12:49:54;;;;;;;3.00;1.80;;;;;;;;;;10450549;28;20052;-81
2023/06/28 12:54:58;;;;;;;4.68;2.33;;;;;;;;;;10471755;28;20541;-78
2023/06/28 13:00:01;;;;;;;2.97;1.90;;;;;;;;;;10471945;28;20056;-80
2023/06/28 13:05:04;;;;;;;6.50;1.80;;;;;;;;;;10479759;28;20040;-80
2023/06/28 13:10:09;;;;;;;3.50;2.05;;;;;;;;;;10474237;28;20056;-79
2023/06/28 13:15:12;;;;;;;5.03;3.65;;;;;;;;;;10432084;28;20049;-79
2023/06/28 13:20:15;;;;;;;3.42;1.60;;;;;;;;;;10430785;28;20445;-80
2023/06/28 13:25:20;;;;;;;4.20;2.05;;;;;;;;;;10428635;28;20351;-79
2023/06/28 13:30:24;;;;;;;2.70;1.73;;;;;;;;;;10423740;28;20045;-80
2023/06/28 13:35:27;;;;;;;2.95;1.85;;;;;;;;;;10428867;28;20037;-80
2023/06/28 13:40:32;;;;;;;5.53;1.95;;;;;;;;;;10438100;28;20048;-81
2023/06/28 13:45:34;;;;;;;1.92;1.50;;;;;;;;;;10468198;28;20475;-82
2023/06/28 13:50:37;;;;;;;3.67;1.65;;;;;;;;;;10413911;28;20044;-81
2023/06/28 13:55:42;;;;;;;3.65;1.67;;;;;;;;;;10408318;28;20491;-80
2023/06/28 14:00:46;;;;;;;2.85;1.55;;;;;;;;;;10406345;28;20049;-80
2023/06/28 14:05:48;;;;;;;1.95;1.40;;;;;;;;;;10397779;28;20033;-80
2023/06/28 14:10:53;;;;;;;2.90;1.70;;;;;;;;;;10392645;28;20045;-80
2023/06/28 14:15:56;;;;;;;4.65;1.55;;;;;;;;;;10402538;28;20037;-80
2023/06/28 14:20:59;;;;;;;3.08;1.52;;;;;;;;;;10405100;28;20043;-79
2023/06/28 14:26:03;;;;;;;3.47;1.60;;;;;;;;;;10395070;28;20462;-80
2023/06/28 14:31:07;;;;;;;3.05;1.88;;;;;;;;;;10399371;28;20103;-80
2023/06/28 14:36:13;;;;;;;3.17;1.85;;;;;;;;;;10404649;28;20091;-79
2023/06/28 14:41:17;;;;;;;3.25;1.52;;;;;;;;;;10405785;28;20463;-79
2023/06/28 14:46:20;;;;;;;2.55;1.45;;;;;;;;;;10401823;28;20042;-80
2023/06/28 14:51:23;;;;;;;2.63;1.50;;;;;;;;;;10413594;28;20037;-80
2023/06/28 14:56:28;;;;;;;2.55;1.60;;;;;;;;;;10400524;28;20042;-80
2023/06/28 15:01:30;;;;;;;3.80;1.60;;;;;;;;;;10393887;28;20168;-81
2023/06/28 15:06:33;;;;;;;3.90;1.80;;;;;;;;;;10392630;28;20038;-80
2023/06/28 15:11:38;;;;;;;2.63;1.80;;;;;;;;;;10395559;28;20078;-81
2023/06/28 15:16:41;;;;;;;2.00;1.38;;;;;;;;;;10391387;28;20125;-80
2023/06/28 15:21:44;;;;;;;4.95;1.70;;;;;;;;;;10440010;28;20061;-81
2023/06/28 15:26:49;;;;;;;2.47;1.70;;;;;;;;;;10446951;28;20045;-80
2023/06/28 15:31:53;;;;;;;2.70;1.60;;;;;;;;;;10445110;28;20071;-80
2023/06/28 15:36:57;;;;;;;2.63;1.73;;;;;;;;;;10448126;28;20057;-80
2023/06/28 15:42:01;;;;;;;3.10;1.50;;;;;;;;;;10450696;28;20040;-79
2023/06/28 15:47:05;;;;;;;3.25;1.77;;;;;;;;;;10422022;28;20497;-82
2023/06/28 15:52:08;;;;;;;3.83;1.70;;;;;;;;;;10461800;28;20052;-82
2023/06/28 15:57:12;;;;;;;3.78;2.33;;;;;;;;;;10475890;28;20541;-82
2023/06/28 16:02:15;;;;;;;4.82;1.98;;;;;;;;;;10483645;28;20059;-81
2023/06/28 16:07:18;;;;;;;4.93;2.20;;;;;;;;;;10479527;28;20047;-82
2023/06/28 16:12:22;;;;;;;5.22;1.70;;;;;;;;;;10477341;28;20041;-82
2023/06/28 16:17:25;;;;;;;3.20;1.70;;;;;;;;;;10478087;28;20048;-81
2023/06/28 16:22:28;;;;;;;3.10;1.70;;;;;;;;;;10482515;28;20075;-80
2023/06/28 16:27:35;;;;;;;3.97;1.75;;;;;;;;;;10480457;28;20025;-82
2023/06/28 16:32:38;;;;;;;3.50;2.10;;;;;;;;;;10477710;28;20053;-82
2023/06/28 16:37:41;;;;;;;3.28;1.73;;;;;;;;;;10477209;28;20366;-81
2023/06/28 16:42:43;;;;;;;;;;;;;;;;;;10473537;28;20110;-82
2023/06/28 16:47:48;;;;;;;5.47;1.60;;;;;;;;;;10476739;28;20027;-82
2023/06/28 16:52:50;;;;;;;5.15;2.03;;;;;;;;;;10471644;28;20068;-81
2023/06/28 16:57:53;;;;;;;;;;;;;;;;;;10464467;28;20060;-80
2023/06/28 17:02:57;;;;;;;3.53;1.63;;;;;;;;;;10478786;28;20020;-80
2023/06/28 17:08:09;;;;;;;3.15;1.70;;;;;;;;;;10475407;28;20133;-80
2023/06/28 17:13:12;;;;;;;3.72;1.90;;;;;;;;;;10481067;28;20040;-80
2023/06/28 17:18:16;;;;;;;3.70;1.83;;;;;;;;;;10476197;28;20115;-80
2023/06/28 17:23:21;;;;;;;4.65;1.90;;;;;;;;;;10498681;28;20047;-80
2023/06/28 17:28:24;;;;;;;4.53;2.00;;;;;;;;;;10484020;28;20370;-80
2023/06/28 17:33:28;;;;;;;4.28;2.10;;;;;;;;;;10477343;28;20040;-81
2023/06/28 17:38:31;;;;;;;8.90;5.20;;;;;;;;;;10477109;28;20043;-82
2023/06/28 17:43:34;;;;;;;2.63;1.70;;;;;;;;;;10484460;28;20440;-81
2023/06/28 17:48:37;;;;;;;;;;;;;;;;;;10474459;28;20037;-81
2023/06/28 17:53:41;;;;;;;4.45;2.30;;;;;;;;;;10487044;28;19928;-80
2023/06/28 17:58:45;;;;;;;3.42;1.80;;;;;;;;;;10503295;28;20052;-80
2023/06/28 18:03:51;;;;;;;4.45;1.83;;;;;;;;;;10488943;28;20052;-80
2023/06/28 18:08:55;;;;;;;3.58;1.92;;;;;;;;;;10486320;28;20456;-81
2023/06/28 18:13:58;;;;;;;3.53;1.83;;;;;;;;;;10486637;28;20037;-81
2023/06/28 18:19:01;;;;;;;4.63;1.77;;;;;;;;;;10485448;28;20178;-80
2023/06/28 18:24:05;;;;;;;4.55;1.98;;;;;;;;;;10483105;28;20045;-80
2023/06/28 18:29:08;;;;;;;5.18;2.70;;;;;;;;;;10479809;28;20049;-80
2023/06/28 18:34:11;;;;;;;3.95;1.90;;;;;;;;;;10479927;28;20144;-80
2023/06/28 18:39:18;;;;;;;2.67;1.98;;;;;;;;;;10474363;28;20036;-80
2023/06/28 18:44:21;;;;;;;6.47;3.08;;;;;;;;;;10479216;28;20467;-80
2023/06/28 18:49:23;;;;;;;3.35;2.05;;;;;;;;;;10484815;28;20048;-81
2023/06/28 18:54:28;;;;;;;4.45;1.85;;;;;;;;;;10477092;28;20037;-80
2023/06/28 18:59:31;;;;;;;7.25;3.50;;;;;;;;;;10490366;28;20042;-80
2023/06/28 19:04:36;;;;;;;4.88;2.50;;;;;;;;;;10481888;28;20040;-80
2023/06/28 19:09:41;;;;;;;4.35;1.90;;;;;;;;;;10487469;28;20143;-81
2023/06/28 19:14:43;;;;;;;6.40;2.95;;;;;;;;;;10480586;28;20055;-80
2023/06/28 19:19:46;;;;;;;6.67;2.47;;;;;;;;;;10476935;28;20049;-80
2023/06/28 19:24:50;;;;;;;5.15;2.47;;;;;;;;;;10469955;28;20148;-81
2023/06/28 19:29:53;;;;;;;12.50;5.63;;;;;;;;;;10477723;28;20509;-80
2023/06/28 19:34:57;;;;;;;3.88;2.13;;;;;;;;;;10482960;28;20143;-80
2023/06/28 19:40:03;;;;;;;7.80;4.32;;;;;;;;;;10479752;28;20105;-80
2023/06/28 19:45:10;;;;;;;10.10;3.88;;;;;;;;;;10482282;28;20474;-80
2023/06/28 19:50:13;;;;;;;9.10;4.22;;;;;;;;;;10483421;28;20137;-81
2023/06/28 19:55:17;;;;;;;6.80;2.85;;;;;;;;;;10479658;28;20113;-80
2023/06/28 20:00:20;;;;;;;9.73;5.70;;;;;;;;;;10482185;28;20064;-80
2023/06/28 20:05:23;;;;;;;9.23;4.32;;;;;;;;;;10473025;28;20047;-81
2023/06/28 20:10:27;;;;;;;9.70;4.53;;;;;;;;;;10472235;28;20098;-78
2023/06/28 20:15:29;;;;;;;7.78;4.10;;;;;;;;;;10474793;28;20059;-80
2023/06/28 20:20:32;;;;;;;6.53;3.23;;;;;;;;;;10479606;28;20544;-81
2023/06/28 20:25:39;;;;;;;4.40;2.72;;;;;;;;;;10475801;28;20043;-81
2023/06/28 20:30:43;;;;;;;7.90;3.17;;;;;;;;;;10477233;28;20040;-81
2023/06/28 20:35:45;;;;;;;6.23;2.83;;;;;;;;;;10476624;28;20129;-80
2023/06/28 20:40:50;;;;;;;10.65;2.88;;;;;;;;;;10481405;28;20033;-80
2023/06/28 20:46:00;;;;;;;5.22;2.35;;;;;;;;;;10485257;28;20457;-76
2023/06/28 20:51:03;;;;;;;9.68;4.70;;;;;;;;;;10478280;28;20145;-78
2023/06/28 20:56:08;;;;;;;4.63;2.93;;;;;;;;;;10483182;28;20165;-77
2023/06/28 21:01:11;;;;;;;7.25;2.70;;;;;;;;;;10479204;28;20044;-76
2023/06/28 21:06:18;;;;;;;7.80;2.70;;;;;;;;;;10490098;28;20505;-77
2023/06/28 21:11:22;;;;;;;7.93;3.45;;;;;;;;;;10484354;28;20662;-77
2023/06/28 21:16:25;;;;;;;6.32;2.70;;;;;;;;;;10487946;28;20606;-77
2023/06/28 21:21:27;;;;;;;7.53;3.07;;;;;;;;;;10495633;28;20489;-78
2023/06/28 21:26:31;;;;;;;6.70;3.37;;;;;;;;;;10488026;28;20489;-76
2023/06/28 21:31:34;;;;;;;6.40;3.20;;;;;;;;;;10493387;28;20063;-77
2023/06/28 21:36:37;;;;;;;4.67;2.93;;;;;;;;;;10498638;28;20033;-77
2023/06/28 21:41:41;;;;;;;6.20;3.17;;;;;;;;;;10497535;28;20378;-76
2023/06/28 21:46:43;;;;;;;7.43;3.30;;;;;;;;;;10477168;28;20047;-77
2023/06/28 21:51:46;;;;;;;6.45;3.00;;;;;;;;;;10478947;28;20040;-77
2023/06/28 21:56:50;;;;;;;4.80;2.90;;;;;;;;;;10477373;28;20072;-77
2023/06/28 22:01:53;;;;;;;6.82;3.58;;;;;;;;;;10478224;28;20037;-77
2023/06/28 22:06:58;;;;;;;6.35;3.13;;;;;;;;;;10478029;28;20044;-76
2023/06/28 22:12:10;;;;;;;6.07;3.42;;;;;;;;;;10476494;28;20036;-76
2023/06/28 22:17:13;;;;;;;8.90;3.78;;;;;;;;;;10481786;28;20114;-76
2023/06/28 22:22:15;;;;;;;7.63;3.37;;;;;;;;;;10491309;28;20120;-77
2023/06/28 22:27:19;;;;;;;7.10;3.30;;;;;;;;;;10494473;28;20238;-77
2023/06/28 22:32:22;;;;;;;8.90;3.70;;;;;;;;;;10489908;28;20125;-76
2023/06/28 22:37:25;;;;;;;5.87;3.20;;;;;;;;;;10478543;28;20098;-76
2023/06/28 22:42:29;;;;;;;9.80;3.50;;;;;;;;;;10481485;28;20489;-76
2023/06/28 22:47:32;;;;;;;9.00;3.42;;;;;;;;;;10487386;28;20048;-76
2023/06/28 22:52:34;;;;;;;7.67;3.20;;;;;;;;;;10486230;28;20124;-75
2023/06/28 22:57:38;;;;;;;5.72;3.50;;;;;;;;;;10479272;28;20047;-75
2023/06/28 23:02:41;;;;;;;4.78;2.95;;;;;;;;;;10480839;28;20120;-76
2023/06/28 23:07:44;;;;;;;6.88;3.25;;;;;;;;;;10485921;28;20490;-77
2023/06/28 23:12:51;;;;;;;5.00;2.73;;;;;;;;;;10482414;28;20118;-76
2023/06/28 23:17:55;;;;;;;6.30;3.20;;;;;;;;;;10493481;28;20112;-76
2023/06/28 23:22:58;;;;;;;4.55;2.85;;;;;;;;;;10493242;28;20068;-76
2023/06/28 23:28:02;;;;;;;8.73;3.40;;;;;;;;;;10474851;28;20437;-77
2023/06/28 23:33:06;;;;;;;4.93;2.67;;;;;;;;;;10474685;28;20079;-77
2023/06/28 23:38:08;;;;;;;;;;;;;;;;;;10469273;28;20401;-76
2023/06/28 23:43:12;;;;;;;3.30;1.98;;;;;;;;;;10473806;28;19920;-77
2023/06/28 23:48:17;;;;;;;7.72;2.70;;;;;;;;;;10470583;28;20049;-77
2023/06/28 23:53:20;;;;;;;4.43;1.63;;;;;;;;;;10467061;28;20052;-76
2023/06/28 23:58:23;;;;;;;;;;;;;;;;;;10476422;28;20086;-76
